Time;durP1;ratioP1;P1;durP2;ratioP2;P2;SDS_P1;SDS_P2;PMS_P1;PMS_P2;Temp;Humidity;BMP_temperature;BMP_pressure;BME280_temperature;BME280_humidity;BME280_pressure;Samples;Min_cycle;Max_cycle;Signal;HPM_P1;HPM_P2
2023/12/24 00:01:17;;;;;;;0.60;0.30;;;10.00;99.90;;;;;;4993812;28;20616;-73
2023/12/24 00:03:44;;;;;;;0.60;0.30;;;10.00;99.90;;;;;;4991646;28;20442;-72
2023/12/24 00:06:13;;;;;;;2.00;1.43;;;10.00;99.90;;;;;;4991463;28;20502;-73
2023/12/24 00:08:41;;;;;;;0.60;0.20;;;10.00;99.90;;;;;;4980888;28;20443;-72
2023/12/24 00:11:08;;;;;;;0.50;0.10;;;10.00;99.90;;;;;;4974498;28;20440;-72
2023/12/24 00:13:36;;;;;;;0.50;0.10;;;10.00;99.90;;;;;;4976012;28;20532;-72
2023/12/24 00:16:06;;;;;;;1.47;0.20;;;10.00;99.90;;;;;;4992491;28;20967;-72
2023/12/24 00:18:34;;;;;;;0.70;0.37;;;10.10;99.90;;;;;;4993932;28;20549;-73
2023/12/24 00:21:02;;;;;;;9.10;1.17;;;10.10;99.90;;;;;;4985711;28;20527;-73
2023/12/24 00:23:30;;;;;;;0.50;0.10;;;10.00;99.90;;;;;;4993636;28;20454;-74
2023/12/24 00:25:58;;;;;;;0.50;0.20;;;10.10;99.90;;;;;;4993417;28;20806;-72
2023/12/24 00:28:26;;;;;;;0.50;0.30;;;10.10;99.90;;;;;;4993451;28;20459;-72
2023/12/24 00:30:53;;;;;;;0.50;0.17;;;10.10;99.90;;;;;;4993502;28;20440;-73
2023/12/24 00:33:23;;;;;;;2.77;0.30;;;10.20;99.90;;;;;;4993307;28;20496;-73
2023/12/24 00:35:51;;;;;;;0.60;0.30;;;10.20;99.90;;;;;;4989745;28;20550;-72
2023/12/24 00:38:18;;;;;;;0.60;0.30;;;10.30;99.90;;;;;;4987237;28;20573;-73
2023/12/24 00:40:46;;;;;;;1.20;0.40;;;10.20;99.90;;;;;;4981371;28;20494;-73
2023/12/24 00:43:14;;;;;;;0.50;0.10;;;10.30;99.90;;;;;;4982727;28;20543;-73
2023/12/24 00:45:44;;;;;;;0.50;0.20;;;10.20;99.90;;;;;;4981160;28;20940;-73
2023/12/24 00:48:12;;;;;;;0.60;0.20;;;10.30;99.90;;;;;;4991439;28;20464;-72
2023/12/24 00:50:41;;;;;;;0.50;0.10;;;10.30;99.90;;;;;;4981410;28;20451;-73
2023/12/24 00:53:09;;;;;;;0.50;0.20;;;10.30;99.90;;;;;;4982056;28;20487;-73
2023/12/24 00:55:40;;;;;;;0.50;0.20;;;10.30;99.90;;;;;;4992665;28;20921;-73
2023/12/24 00:58:07;;;;;;;0.50;0.20;;;10.30;99.90;;;;;;4984367;28;20476;-72
2023/12/24 01:00:35;;;;;;;0.60;0.20;;;10.30;99.90;;;;;;4985806;28;20651;-73
2023/12/24 01:05:56;;;;;;;0.50;0.10;;;10.60;99.90;;;;;;5709948;23;21052;-72
2023/12/24 01:08:24;;;;;;;0.50;0.10;;;10.40;99.90;;;;;;4999207;28;20504;-72
2023/12/24 01:10:52;;;;;;;0.50;0.10;;;10.40;99.90;;;;;;5025825;28;20458;-72
2023/12/24 01:13:21;;;;;;;0.50;0.20;;;10.40;99.90;;;;;;5022165;28;20484;-72
2023/12/24 01:15:49;;;;;;;0.60;0.30;;;10.50;99.90;;;;;;5019083;28;20472;-72
2023/12/24 01:18:17;;;;;;;0.50;0.10;;;10.50;99.90;;;;;;4993504;28;20723;-72
2023/12/24 01:20:45;;;;;;;0.70;0.17;;;10.50;99.90;;;;;;4994231;28;20507;-73
2023/12/24 01:23:14;;;;;;;0.60;0.30;;;10.50;99.90;;;;;;5006075;28;20446;-72
2023/12/24 01:25:42;;;;;;;0.50;0.20;;;10.50;99.90;;;;;;5005529;28;20832;-73
2023/12/24 01:28:10;;;;;;;0.50;0.20;;;;;;;;;;4999010;28;20453;-72
2023/12/24 01:30:38;;;;;;;0.50;0.17;;;10.50;99.90;;;;;;4993253;28;20459;-72
2023/12/24 01:33:06;;;;;;;0.50;0.10;;;10.50;99.90;;;;;;4994781;28;20483;-73
2023/12/24 01:35:34;;;;;;;0.50;0.10;;;10.50;99.90;;;;;;4992412;28;20478;-72
2023/12/24 01:38:02;;;;;;;0.50;0.20;;;10.50;99.90;;;;;;4992658;28;20448;-71
2023/12/24 01:40:32;;;;;;;2.00;1.50;;;10.50;99.90;;;;;;4993585;28;20462;-71
2023/12/24 01:42:59;;;;;;;0.97;0.87;;;10.50;99.90;;;;;;4994945;28;20534;-72
2023/12/24 01:45:27;;;;;;;1.07;0.30;;;10.60;99.90;;;;;;4992005;28;20554;-72
2023/12/24 01:47:55;;;;;;;0.50;0.10;;;10.60;99.90;;;;;;4992419;28;20759;-72
2023/12/24 01:50:23;;;;;;;0.60;0.30;;;10.60;99.90;;;;;;4992454;28;20452;-73
2023/12/24 01:52:52;;;;;;;0.50;0.20;;;;;;;;;;4992147;28;20453;-72
2023/12/24 01:55:21;;;;;;;0.80;0.30;;;10.60;99.90;;;;;;4991716;28;20491;-71
2023/12/24 01:57:50;;;;;;;0.60;0.30;;;10.70;99.90;;;;;;4992833;28;20452;-72
2023/12/24 02:00:19;;;;;;;0.80;0.37;;;10.70;99.90;;;;;;4992242;28;20962;-72
2023/12/24 02:02:49;;;;;;;0.50;0.17;;;10.70;99.90;;;;;;4995757;28;20562;-72
2023/12/24 02:05:18;;;;;;;4.10;0.47;;;10.70;99.90;;;;;;4996406;28;20478;-72
2023/12/24 02:07:47;;;;;;;0.50;0.20;;;10.70;99.90;;;;;;4995310;28;20547;-71
2023/12/24 02:10:15;;;;;;;0.60;0.30;;;10.70;99.90;;;;;;4997006;28;20477;-72
2023/12/24 02:12:42;;;;;;;0.50;0.10;;;10.70;99.90;;;;;;5001702;28;20520;-71
2023/12/24 02:15:12;;;;;;;0.60;0.27;;;10.70;99.90;;;;;;5001756;28;20499;-71
2023/12/24 02:17:41;;;;;;;0.50;0.10;;;10.70;99.90;;;;;;5003563;28;20470;-71
2023/12/24 02:20:09;;;;;;;0.50;0.10;;;10.70;99.90;;;;;;4994752;28;20928;-71
2023/12/24 02:22:39;;;;;;;0.50;0.10;;;10.80;99.90;;;;;;4995862;28;20465;-71
2023/12/24 02:25:07;;;;;;;0.60;0.20;;;10.80;99.90;;;;;;4991526;28;20535;-74
2023/12/24 02:27:43;;;;;;;0.50;0.20;;;10.80;99.90;;;;;;4992013;28;20449;-72
2023/12/24 02:30:19;;;;;;;0.60;0.20;;;10.80;99.90;;;;;;4992727;28;20542;-71
2023/12/24 02:32:52;;;;;;;0.50;0.20;;;10.80;99.90;;;;;;4991882;28;20447;-72
2023/12/24 02:35:21;;;;;;;0.50;0.20;;;10.80;99.90;;;;;;4991564;28;20498;-71
2023/12/24 02:37:50;;;;;;;0.50;0.10;;;10.70;99.90;;;;;;4992021;28;20551;-71
2023/12/24 02:40:18;;;;;;;0.50;0.20;;;10.70;99.90;;;;;;4995368;28;20482;-71
2023/12/24 02:42:46;;;;;;;0.50;0.10;;;10.70;99.90;;;;;;4995655;28;20491;-72
2023/12/24 02:45:14;;;;;;;0.60;0.20;;;10.70;99.90;;;;;;4997386;28;20965;-73
2023/12/24 02:47:42;;;;;;;0.60;0.20;;;10.70;99.90;;;;;;4995516;28;20464;-71
2023/12/24 02:50:10;;;;;;;0.50;0.20;;;10.70;99.90;;;;;;4994956;28;20808;-71
2023/12/24 02:52:39;;;;;;;0.50;0.10;;;10.70;99.90;;;;;;4996342;28;21041;-72
2023/12/24 02:55:08;;;;;;;0.60;0.20;;;10.70;99.90;;;;;;4994792;28;20511;-71
2023/12/24 02:57:36;;;;;;;0.50;0.20;;;10.70;99.90;;;;;;4995949;28;20535;-71
2023/12/24 03:00:08;;;;;;;0.50;0.10;;;10.70;99.90;;;;;;4995955;28;20535;-71
2023/12/24 03:02:36;;;;;;;2.73;2.63;;;10.70;99.90;;;;;;4995880;28;20452;-72
2023/12/24 03:05:04;;;;;;;0.50;0.20;;;10.70;99.90;;;;;;5000092;28;20846;-71
2023/12/24 03:07:32;;;;;;;0.50;0.20;;;10.70;99.90;;;;;;4995797;28;20478;-72
2023/12/24 03:10:00;;;;;;;0.50;0.20;;;10.70;99.90;;;;;;4996602;28;20540;-71
2023/12/24 03:12:30;;;;;;;0.67;0.30;;;10.60;99.90;;;;;;4997822;28;20515;-71
2023/12/24 03:14:58;;;;;;;0.50;0.10;;;10.60;99.90;;;;;;5004554;28;20680;-72
2023/12/24 03:17:26;;;;;;;0.60;0.50;;;10.60;99.90;;;;;;4994747;28;20456;-71
2023/12/24 03:19:54;;;;;;;0.73;0.20;;;10.60;99.90;;;;;;4995613;28;20518;-71
2023/12/24 03:22:22;;;;;;;0.50;0.10;;;10.60;99.90;;;;;;4995878;28;20481;-72
2023/12/24 03:24:50;;;;;;;1.37;1.03;;;10.60;99.90;;;;;;4995153;28;20964;-71
2023/12/24 03:27:18;;;;;;;4.20;1.13;;;10.70;99.90;;;;;;4998197;28;20558;-72
2023/12/24 03:29:47;;;;;;;0.50;0.10;;;10.70;99.90;;;;;;4995802;28;20500;-71
2023/12/24 03:32:15;;;;;;;0.80;0.40;;;10.70;99.90;;;;;;4995057;28;20443;-72
2023/12/24 03:34:43;;;;;;;0.60;0.30;;;10.60;99.90;;;;;;4995794;28;20480;-71
2023/12/24 03:37:11;;;;;;;5.23;2.07;;;10.60;99.90;;;;;;4995114;28;20575;-72
2023/12/24 03:39:38;;;;;;;0.50;0.10;;;10.60;99.90;;;;;;4995919;28;20449;-72
2023/12/24 03:42:06;;;;;;;0.50;0.10;;;10.60;99.90;;;;;;4999834;28;20479;-72
2023/12/24 03:44:34;;;;;;;1.37;1.27;;;10.70;99.90;;;;;;5007422;28;20445;-72
2023/12/24 03:47:04;;;;;;;0.50;0.10;;;10.70;99.90;;;;;;5007511;28;20974;-72
2023/12/24 03:49:32;;;;;;;0.50;0.10;;;10.80;99.90;;;;;;5005297;28;20470;-72
2023/12/24 03:52:00;;;;;;;0.50;0.10;;;10.80;99.90;;;;;;4999125;28;20447;-72
2023/12/24 03:54:27;;;;;;;0.50;0.10;;;10.90;99.90;;;;;;5013824;28;21030;-72
2023/12/24 03:56:55;;;;;;;0.50;0.10;;;10.80;99.90;;;;;;5020029;28;20545;-72
2023/12/24 03:59:23;;;;;;;0.50;0.20;;;10.80;99.90;;;;;;5021068;28;20482;-72
2023/12/24 04:01:51;;;;;;;0.50;0.10;;;10.80;99.90;;;;;;5021385;28;20485;-72
2023/12/24 04:04:20;;;;;;;0.50;0.10;;;10.80;99.90;;;;;;5021771;28;20447;-72
2023/12/24 04:06:48;;;;;;;0.50;0.10;;;10.80;99.90;;;;;;5016558;28;20555;-72
2023/12/24 04:09:16;;;;;;;0.50;0.10;;;10.80;99.90;;;;;;5019886;28;20485;-72
2023/12/24 04:11:44;;;;;;;0.50;0.10;;;10.70;99.90;;;;;;5020728;28;20472;-72
2023/12/24 04:14:12;;;;;;;0.50;0.10;;;10.70;99.90;;;;;;5023875;28;20503;-72
2023/12/24 04:16:39;;;;;;;0.50;0.10;;;10.70;99.90;;;;;;5009056;28;20953;-74
2023/12/24 04:19:08;;;;;;;0.50;0.10;;;10.70;99.90;;;;;;5006630;28;20537;-72
2023/12/24 04:21:37;;;;;;;0.50;0.10;;;10.70;99.90;;;;;;5014405;28;20454;-73
2023/12/24 04:24:05;;;;;;;0.50;0.10;;;10.70;99.90;;;;;;5006204;28;20440;-72
2023/12/24 04:26:36;;;;;;;0.50;0.10;;;12.60;99.90;;;;;;5013897;28;20554;-72
2023/12/24 04:29:05;;;;;;;0.50;0.10;;;10.70;99.90;;;;;;5009698;28;20459;-72
2023/12/24 04:31:32;;;;;;;0.50;0.10;;;10.70;99.90;;;;;;4998117;28;20951;-73
2023/12/24 04:34:00;;;;;;;0.50;0.10;;;10.70;99.90;;;;;;5007506;28;20462;-73
2023/12/24 04:36:28;;;;;;;0.50;0.10;;;10.70;99.90;;;;;;5012825;28;20484;-72
2023/12/24 04:38:57;;;;;;;0.50;0.10;;;10.70;99.90;;;;;;5000859;28;20518;-73
2023/12/24 04:41:26;;;;;;;0.50;0.10;;;10.70;99.90;;;;;;5005348;28;20870;-71
2023/12/24 04:43:54;;;;;;;0.50;0.10;;;10.70;99.90;;;;;;5009708;28;20960;-72
2023/12/24 04:46:22;;;;;;;0.50;0.10;;;10.70;99.90;;;;;;4993716;28;20470;-72
2023/12/24 04:48:50;;;;;;;0.50;0.10;;;;;;;;;;4993615;28;20552;-72
2023/12/24 04:51:18;;;;;;;0.50;0.20;;;10.70;99.90;;;;;;4993648;28;20961;-72
2023/12/24 04:53:46;;;;;;;0.53;0.23;;;10.70;99.90;;;;;;4993818;28;20451;-72
2023/12/24 04:56:21;;;;;;;0.50;0.20;;;10.60;99.90;;;;;;4992741;28;20558;-72
2023/12/24 04:58:51;;;;;;;0.60;0.43;;;10.60;99.90;;;;;;4997443;28;20964;-72
2023/12/24 05:01:19;;;;;;;0.50;0.13;;;10.50;99.90;;;;;;4992599;28;20443;-72
2023/12/24 05:03:47;;;;;;;0.50;0.10;;;10.50;99.90;;;;;;4998581;28;20451;-72
2023/12/24 05:06:15;;;;;;;0.60;0.30;;;10.50;99.90;;;;;;4992276;28;20469;-72
2023/12/24 05:08:43;;;;;;;0.50;0.10;;;10.50;99.90;;;;;;4992753;28;20519;-72
2023/12/24 05:11:11;;;;;;;0.60;0.30;;;10.50;99.90;;;;;;4992988;28;20452;-73
2023/12/24 05:13:40;;;;;;;0.60;0.27;;;10.50;99.90;;;;;;5006758;28;20439;-72
2023/12/24 05:16:08;;;;;;;0.50;0.17;;;10.40;99.90;;;;;;4992398;28;21014;-72
2023/12/24 05:18:36;;;;;;;0.50;0.10;;;10.30;99.90;;;;;;4992605;28;20443;-71
2023/12/24 05:21:04;;;;;;;0.50;0.20;;;10.30;99.90;;;;;;4992973;28;20453;-72
2023/12/24 05:23:32;;;;;;;0.50;0.20;;;10.20;99.90;;;;;;5000542;28;20459;-72
2023/12/24 05:26:00;;;;;;;0.50;0.10;;;10.20;99.90;;;;;;4991971;28;21000;-72
2023/12/24 05:28:28;;;;;;;0.50;0.20;;;10.30;99.90;;;;;;4992256;28;20455;-72
2023/12/24 05:30:57;;;;;;;0.50;0.10;;;10.20;99.90;;;;;;4992574;28;20464;-73
2023/12/24 05:33:25;;;;;;;0.50;0.13;;;10.20;99.90;;;;;;4992109;28;20464;-73
2023/12/24 05:35:57;;;;;;;0.60;0.43;;;10.20;99.90;;;;;;4991872;28;20530;-72
2023/12/24 05:38:25;;;;;;;0.60;0.23;;;10.10;99.90;;;;;;4992661;28;20451;-72
2023/12/24 05:40:53;;;;;;;0.50;0.10;;;10.10;99.90;;;;;;4999749;28;20541;-72
2023/12/24 05:43:21;;;;;;;0.50;0.10;;;10.00;99.90;;;;;;4997922;28;20473;-72
2023/12/24 05:45:49;;;;;;;0.50;0.10;;;9.90;99.90;;;;;;4997568;28;20826;-72
2023/12/24 05:48:18;;;;;;;0.60;0.20;;;9.90;99.90;;;;;;5006573;28;20455;-72
2023/12/24 05:50:46;;;;;;;0.60;0.20;;;9.90;99.90;;;;;;5013197;28;20533;-72
2023/12/24 05:53:13;;;;;;;0.80;0.40;;;9.80;99.90;;;;;;5009989;28;20446;-72
2023/12/24 05:55:41;;;;;;;0.50;0.10;;;9.80;99.90;;;;;;5006149;28;20562;-72
2023/12/24 05:58:09;;;;;;;0.50;0.20;;;9.70;99.90;;;;;;5013948;28;20526;-72
2023/12/24 06:00:37;;;;;;;0.60;0.30;;;9.70;99.90;;;;;;5012614;28;20473;-72
2023/12/24 06:03:05;;;;;;;0.50;0.20;;;9.60;99.90;;;;;;5012456;28;20445;-72
2023/12/24 06:05:34;;;;;;;0.60;0.30;;;9.60;99.90;;;;;;5009252;28;20520;-72
2023/12/24 06:08:02;;;;;;;0.70;0.60;;;9.60;99.90;;;;;;5012149;28;20462;-72
2023/12/24 06:10:30;;;;;;;0.80;0.53;;;9.60;1.00;;;;;;5011584;28;20461;-72
2023/12/24 06:12:58;;;;;;;0.53;0.30;;;9.60;1.00;;;;;;5012702;28;20456;-72
2023/12/24 06:15:26;;;;;;;0.60;0.50;;;9.50;1.00;;;;;;4999738;28;20554;-72
2023/12/24 06:17:54;;;;;;;4.73;0.50;;;9.50;1.00;;;;;;4996301;28;20452;-72
2023/12/24 06:20:22;;;;;;;0.70;0.30;;;9.50;1.00;;;;;;4996070;28;20453;-72
2023/12/24 06:22:52;;;;;;;0.83;0.30;;;9.50;1.00;;;;;;4995957;28;20488;-71
2023/12/24 06:25:21;;;;;;;0.80;0.57;;;9.50;1.00;;;;;;4995324;28;20907;-72
2023/12/24 06:27:49;;;;;;;1.47;1.03;;;9.50;1.00;;;;;;4998548;28;20478;-71
2023/12/24 06:30:17;;;;;;;0.50;0.20;;;9.50;1.00;;;;;;5015847;28;20472;-71
2023/12/24 06:32:46;;;;;;;0.60;0.23;;;9.50;1.00;;;;;;5018309;28;20474;-71
2023/12/24 06:35:15;;;;;;;0.60;0.20;;;9.50;1.00;;;;;;5025552;28;20498;-71
2023/12/24 06:37:43;;;;;;;0.50;0.10;;;9.50;1.00;;;;;;5022120;28;20878;-71
2023/12/24 06:40:12;;;;;;;0.50;0.10;;;9.60;1.00;;;;;;5016434;28;20878;-71
2023/12/24 06:42:40;;;;;;;0.50;0.20;;;9.60;1.00;;;;;;5005413;28;20529;-71
2023/12/24 06:45:09;;;;;;;0.67;0.50;;;9.60;1.00;;;;;;5005194;28;20500;-71
2023/12/24 06:47:37;;;;;;;0.80;0.30;;;9.50;1.00;;;;;;4998883;28;20454;-71
2023/12/24 06:50:06;;;;;;;0.60;0.30;;;9.50;1.00;;;;;;5014399;28;20464;-71
2023/12/24 06:52:34;;;;;;;0.70;0.30;;;9.50;1.00;;;;;;5015584;28;20529;-71
2023/12/24 06:55:02;;;;;;;0.70;0.47;;;9.50;1.00;;;;;;5014560;28;20549;-71
2023/12/24 06:57:31;;;;;;;0.50;0.20;;;9.60;1.00;;;;;;5004683;28;20573;-72
2023/12/24 07:00:00;;;;;;;0.60;0.30;;;9.60;1.00;;;;;;5013503;28;20464;-71
2023/12/24 07:02:28;;;;;;;0.57;0.30;;;9.60;1.00;;;;;;5004419;28;21060;-71
2023/12/24 07:04:56;;;;;;;0.50;0.13;;;9.60;1.00;;;;;;5004337;28;20468;-71
2023/12/24 07:07:23;;;;;;;0.50;0.10;;;9.60;1.00;;;;;;4999232;28;20499;-72
2023/12/24 07:09:51;;;;;;;0.77;0.77;;;9.60;1.00;;;;;;5012815;28;20476;-72
2023/12/24 07:12:20;;;;;;;0.50;0.10;;;9.60;1.00;;;;;;5001032;28;20523;-72
2023/12/24 07:14:49;;;;;;;0.50;0.20;;;9.60;1.00;;;;;;5015076;28;20457;-72
2023/12/24 07:17:17;;;;;;;0.50;0.20;;;9.60;1.00;;;;;;5000107;28;20590;-72
2023/12/24 07:19:45;;;;;;;0.60;0.37;;;9.60;1.00;;;;;;5006325;28;20467;-71
2023/12/24 07:22:16;;;;;;;0.50;0.20;;;9.60;1.00;;;;;;5005385;28;20489;-72
2023/12/24 07:24:43;;;;;;;0.50;0.10;;;9.60;1.00;;;;;;5006108;28;20493;-72
2023/12/24 07:27:11;;;;;;;0.50;0.10;;;9.60;1.00;;;;;;5002173;28;20504;-73
2023/12/24 07:29:41;;;;;;;0.50;0.10;;;9.60;1.00;;;;;;4997395;28;20487;-71
2023/12/24 07:32:09;;;;;;;0.50;0.10;;;9.60;1.00;;;;;;5006636;28;20479;-71
2023/12/24 07:34:37;;;;;;;0.50;0.10;;;9.70;1.00;;;;;;5013335;28;20453;-71
2023/12/24 07:37:05;;;;;;;0.50;0.20;;;9.60;1.00;;;;;;5008449;28;20564;-71
2023/12/24 07:39:33;;;;;;;0.50;0.20;;;9.60;1.00;;;;;;5002897;28;20851;-71
2023/12/24 07:42:01;;;;;;;0.50;0.10;;;9.60;1.00;;;;;;5016663;28;20518;-72
2023/12/24 07:44:29;;;;;;;0.57;0.23;;;9.60;1.00;;;;;;5005827;28;20488;-72
2023/12/24 07:46:57;;;;;;;0.50;0.10;;;9.60;1.00;;;;;;5010542;28;20511;-73
2023/12/24 07:49:26;;;;;;;0.70;0.30;;;9.70;1.00;;;;;;5042684;28;20541;-72
2023/12/24 07:51:54;;;;;;;0.50;0.10;;;9.60;1.00;;;;;;5034823;28;20467;-72
2023/12/24 07:54:22;;;;;;;0.50;0.10;;;9.60;1.00;;;;;;5023349;28;20443;-72
2023/12/24 07:56:49;;;;;;;0.50;0.10;;;9.60;1.00;;;;;;5023350;28;20482;-72
2023/12/24 07:59:17;;;;;;;0.50;0.20;;;9.70;1.00;;;;;;5014031;28;20444;-71
2023/12/24 08:01:45;;;;;;;0.50;0.10;;;9.60;1.00;;;;;;5005222;28;21045;-72
2023/12/24 08:04:13;;;;;;;0.50;0.10;;;9.60;1.00;;;;;;5002203;28;20503;-71
2023/12/24 08:06:42;;;;;;;0.50;0.20;;;9.60;1.00;;;;;;5004106;28;20991;-71
2023/12/24 08:09:10;;;;;;;0.50;0.10;;;9.60;1.00;;;;;;5006914;28;20447;-72
2023/12/24 08:11:38;;;;;;;0.50;0.10;;;9.70;1.00;;;;;;4996925;28;20497;-72
2023/12/24 08:14:06;;;;;;;0.50;0.20;;;9.70;1.00;;;;;;5004983;28;20497;-72
2023/12/24 08:16:35;;;;;;;0.70;0.63;;;9.70;1.00;;;;;;5010704;28;20487;-72
2023/12/24 08:19:03;;;;;;;0.50;0.10;;;9.70;1.00;;;;;;4998929;28;20511;-72
2023/12/24 08:21:31;;;;;;;0.50;0.10;;;9.70;1.00;;;;;;4996627;28;20497;-72
2023/12/24 08:24:00;;;;;;;0.50;0.20;;;9.70;1.00;;;;;;5000105;28;20470;-72
2023/12/24 08:26:28;;;;;;;1.23;0.63;;;9.70;1.00;;;;;;5013405;28;20465;-72
2023/12/24 08:28:56;;;;;;;0.50;0.10;;;;;;;;;;5004515;28;20460;-72
2023/12/24 08:31:25;;;;;;;0.50;0.10;;;9.70;1.00;;;;;;4997832;28;20449;-72
2023/12/24 08:33:53;;;;;;;0.50;0.20;;;;;;;;;;5005201;28;20461;-72
2023/12/24 08:36:21;;;;;;;0.50;0.10;;;9.70;1.00;;;;;;5012469;28;20470;-71
2023/12/24 08:38:50;;;;;;;0.70;0.40;;;9.70;1.00;;;;;;4999706;28;20485;-71
2023/12/24 08:41:19;;;;;;;0.60;0.30;;;9.70;1.00;;;;;;5005056;28;20488;-72
2023/12/24 08:43:47;;;;;;;0.50;0.10;;;9.70;1.00;;;;;;4999809;28;20512;-72
2023/12/24 08:46:15;;;;;;;0.50;0.17;;;9.80;1.00;;;;;;5001446;28;21020;-72
2023/12/24 08:48:43;;;;;;;0.60;0.20;;;9.80;1.00;;;;;;4996189;28;20449;-70
2023/12/24 08:51:11;;;;;;;1.43;1.13;;;9.80;1.00;;;;;;5006197;28;20458;-72
2023/12/24 08:53:38;;;;;;;0.50;0.10;;;9.80;1.00;;;;;;5010689;28;20449;-72
2023/12/24 08:56:07;;;;;;;0.90;0.30;;;9.80;1.00;;;;;;5011738;28;20472;-71
2023/12/24 08:58:36;;;;;;;0.50;0.10;;;9.80;1.00;;;;;;5011849;28;20473;-69
2023/12/24 09:01:04;;;;;;;0.50;0.10;;;9.80;1.00;;;;;;5006529;28;20938;-71
2023/12/24 09:03:32;;;;;;;0.50;0.10;;;9.80;1.00;;;;;;5009377;28;20508;-70
2023/12/24 09:06:00;;;;;;;0.50;0.10;;;9.90;1.00;;;;;;5011750;28;20466;-71
2023/12/24 09:08:29;;;;;;;0.50;0.20;;;;;;;;;;5011402;28;20456;-71
2023/12/24 09:10:57;;;;;;;0.50;0.10;;;9.90;1.00;;;;;;5006844;28;20451;-71
2023/12/24 09:13:24;;;;;;;0.60;0.20;;;9.90;1.00;;;;;;5002646;28;20499;-71
2023/12/24 09:15:54;;;;;;;0.70;0.50;;;10.00;1.00;;;;;;4992548;28;20474;-70
2023/12/24 09:18:21;;;;;;;0.90;0.40;;;10.00;1.00;;;;;;4992948;28;20484;-71
2023/12/24 09:20:51;;;;;;;0.50;0.20;;;10.00;1.00;;;;;;5003773;28;21152;-70
2023/12/24 09:23:19;;;;;;;0.60;0.30;;;10.10;1.00;;;;;;5013173;28;20451;-71
2023/12/24 09:25:47;;;;;;;0.70;0.30;;;10.00;1.00;;;;;;5012991;28;20480;-71
2023/12/24 09:28:15;;;;;;;1.07;0.53;;;10.00;1.00;;;;;;5012230;28;20535;-72
2023/12/24 09:30:43;;;;;;;0.80;0.30;;;;;;;;;;5012579;28;20505;-73
2023/12/24 09:33:12;;;;;;;0.50;0.17;;;9.90;1.00;;;;;;5012192;28;20472;-71
2023/12/24 09:35:40;;;;;;;0.50;0.10;;;9.90;1.00;;;;;;5004155;28;20470;-71
2023/12/24 09:38:08;;;;;;;0.60;0.20;;;9.90;1.00;;;;;;5007671;28;20525;-71
2023/12/24 09:40:37;;;;;;;0.70;0.30;;;10.00;1.00;;;;;;5005295;28;20499;-71
2023/12/24 09:43:06;;;;;;;0.50;0.20;;;10.00;1.00;;;;;;4992392;28;20449;-72
2023/12/24 09:45:35;;;;;;;0.50;0.10;;;6.20;1.00;;;;;;4993748;28;20499;-73
2023/12/24 09:48:03;;;;;;;3.70;0.43;;;10.00;1.00;;;;;;4999222;28;20573;-71
2023/12/24 09:50:32;;;;;;;0.50;0.20;;;10.00;1.00;;;;;;5004555;28;20453;-71
2023/12/24 09:53:04;;;;;;;0.50;0.20;;;10.00;1.00;;;;;;5003212;28;20504;-71
2023/12/24 09:55:32;;;;;;;0.70;0.30;;;10.10;1.00;;;;;;4995374;28;20579;-72
2023/12/24 09:57:59;;;;;;;1.33;0.37;;;10.00;1.00;;;;;;5006479;28;20569;-71
2023/12/24 10:00:27;;;;;;;0.50;0.10;;;10.00;1.00;;;;;;5010563;28;20463;-72
2023/12/24 10:02:55;;;;;;;0.60;0.50;;;10.10;1.00;;;;;;5013632;28;20470;-72
2023/12/24 10:05:24;;;;;;;0.50;0.20;;;10.10;1.00;;;;;;5018147;28;20486;-72
2023/12/24 10:07:53;;;;;;;0.50;0.17;;;10.10;1.00;;;;;;5006385;28;20474;-72
2023/12/24 10:10:30;;;;;;;0.60;0.43;;;10.10;1.00;;;;;;5002139;28;20447;-71
2023/12/24 10:13:05;;;;;;;0.50;0.20;;;10.20;1.00;;;;;;5003092;28;21004;-70
2023/12/24 10:15:38;;;;;;;0.50;0.30;;;10.20;1.00;;;;;;5002142;28;20495;-71
2023/12/24 10:18:19;;;;;;;0.50;0.10;;;;;;;;;;5003005;28;20475;-72
2023/12/24 10:20:48;;;;;;;0.50;0.10;;;10.20;1.00;;;;;;5005936;28;20468;-71
2023/12/24 10:23:20;;;;;;;0.60;0.30;;;10.20;1.00;;;;;;5004172;28;20952;-73
2023/12/24 10:26:02;;;;;;;0.50;0.20;;;10.20;1.00;;;;;;5000015;28;20465;-71
2023/12/24 10:28:30;;;;;;;0.50;0.10;;;10.10;1.00;;;;;;4994704;28;20455;-72
2023/12/24 10:31:07;;;;;;;0.50;0.10;;;10.20;1.00;;;;;;4994777;28;20548;-73
2023/12/24 10:33:36;;;;;;;0.50;0.10;;;10.30;1.00;;;;;;5005102;28;20446;-72
2023/12/24 10:36:04;;;;;;;1.07;0.30;;;;;;;;;;5001949;28;20546;-72
2023/12/24 10:38:35;;;;;;;0.50;0.10;;;10.30;1.00;;;;;;5006004;28;20518;-72
2023/12/24 10:41:03;;;;;;;0.50;0.10;;;10.40;1.00;;;;;;5006015;28;20947;-72
2023/12/24 10:43:31;;;;;;;1.17;0.97;;;10.40;1.00;;;;;;5006337;28;20448;-72
2023/12/24 10:45:59;;;;;;;0.50;0.10;;;10.50;1.00;;;;;;5005708;28;20606;-72
2023/12/24 10:48:27;;;;;;;1.33;0.93;;;10.50;1.00;;;;;;5005948;28;20535;-71
2023/12/24 10:50:55;;;;;;;0.50;0.10;;;10.50;1.00;;;;;;5021977;28;20923;-71
2023/12/24 10:53:23;;;;;;;0.50;0.20;;;10.50;1.00;;;;;;4998813;28;20451;-71
2023/12/24 10:56:00;;;;;;;0.50;0.10;;;10.50;1.00;;;;;;4993453;28;20461;-71
2023/12/24 10:58:40;;;;;;;3.20;0.37;;;10.60;1.00;;;;;;4994048;28;20488;-72
2023/12/24 11:01:09;;;;;;;0.50;0.20;;;10.60;1.00;;;;;;4994767;28;20474;-72
2023/12/24 11:03:44;;;;;;;0.50;0.10;;;10.70;1.00;;;;;;4995934;28;20898;-72
2023/12/24 11:06:32;;;;;;;0.70;0.57;;;10.70;1.00;;;;;;4993356;28;20538;-70
2023/12/24 11:09:00;;;;;;;0.50;0.10;;;10.80;1.00;;;;;;5005904;28;20498;-72
2023/12/24 11:11:53;;;;;;;0.50;0.10;;;10.80;1.00;;;;;;4994664;28;20539;-72
2023/12/24 11:14:38;;;;;;;0.50;0.10;;;10.80;1.00;;;;;;5001335;28;20455;-72
2023/12/24 11:17:08;;;;;;;0.50;0.10;;;10.90;99.90;;;;;;5003463;28;20538;-72
2023/12/24 11:19:40;;;;;;;0.83;0.20;;;10.90;99.90;;;;;;5000116;28;20491;-72
2023/12/24 11:22:10;;;;;;;0.50;0.20;;;10.90;99.90;;;;;;5005049;28;20447;-72
2023/12/24 11:24:42;;;;;;;1.17;0.40;;;10.90;99.90;;;;;;5006903;28;20957;-72
2023/12/24 11:27:22;;;;;;;0.80;0.20;;;10.90;99.90;;;;;;5008037;28;20473;-72
2023/12/24 11:29:52;;;;;;;0.50;0.20;;;10.80;99.90;;;;;;5005828;28;20487;-71
2023/12/24 11:32:36;;;;;;;0.50;0.10;;;10.90;99.90;;;;;;5005613;28;20502;-71
2023/12/24 11:35:06;;;;;;;0.50;0.10;;;10.90;99.90;;;;;;5005324;28;20515;-71
2023/12/24 11:37:38;;;;;;;0.50;0.10;;;10.80;99.90;;;;;;5007252;28;20454;-72
2023/12/24 11:40:09;;;;;;;0.50;0.20;;;10.90;99.90;;;;;;5004371;28;20494;-71
2023/12/24 11:42:44;;;;;;;0.63;0.23;;;10.90;99.90;;;;;;5007465;28;20510;-72
2023/12/24 11:45:23;;;;;;;6.23;0.90;;;10.80;99.90;;;;;;5006538;28;20533;-72
2023/12/24 11:47:52;;;;;;;0.50;0.10;;;10.90;99.90;;;;;;5005595;28;20909;-71
2023/12/24 11:50:21;;;;;;;0.50;0.10;;;10.90;99.90;;;;;;4997390;28;20452;-72
2023/12/24 11:52:50;;;;;;;0.50;0.10;;;11.00;99.90;;;;;;5005520;28;20841;-72
2023/12/24 11:55:19;;;;;;;0.80;0.20;;;;;;;;;;5003388;28;20458;-72
2023/12/24 11:57:49;;;;;;;0.50;0.10;;;11.10;99.90;;;;;;5021261;28;20481;-72
2023/12/24 12:00:24;;;;;;;0.80;0.40;;;11.10;99.90;;;;;;5022041;28;20511;-72
2023/12/24 12:02:56;;;;;;;0.60;0.30;;;11.10;99.90;;;;;;5007219;28;20487;-72
2023/12/24 12:05:26;;;;;;;1.33;0.20;;;11.10;99.90;;;;;;5006457;28;20472;-72
2023/12/24 12:07:54;;;;;;;0.60;0.23;;;11.10;99.90;;;;;;5010913;28;20954;-72
2023/12/24 12:10:22;;;;;;;0.50;0.10;;;11.10;99.90;;;;;;5023642;28;20453;-73
2023/12/24 12:12:52;;;;;;;0.50;0.10;;;11.10;99.90;;;;;;5022756;28;20446;-74
2023/12/24 12:15:23;;;;;;;0.60;0.40;;;11.10;99.90;;;;;;5005181;28;20465;-71
2023/12/24 12:17:51;;;;;;;2.53;0.30;;;11.10;99.90;;;;;;4998755;28;20452;-71
2023/12/24 12:20:19;;;;;;;0.50;0.10;;;11.20;99.90;;;;;;5004873;28;20491;-72
2023/12/24 12:22:50;;;;;;;0.70;0.30;;;11.20;99.90;;;;;;4992694;28;20542;-71
2023/12/24 12:25:19;;;;;;;0.83;0.20;;;11.20;99.90;;;;;;4995088;28;20502;-72
2023/12/24 12:27:46;;;;;;;0.50;0.10;;;11.20;99.90;;;;;;4995324;28;20541;-71
2023/12/24 12:30:19;;;;;;;0.50;0.17;;;11.20;99.90;;;;;;4995505;28;20799;-72
2023/12/24 12:32:47;;;;;;;1.03;0.93;;;;;;;;;;5001346;28;20464;-72
2023/12/24 12:35:16;;;;;;;0.60;0.30;;;11.20;99.90;;;;;;5005643;28;20452;-71
2023/12/24 12:37:47;;;;;;;0.50;0.10;;;11.30;99.90;;;;;;5016060;28;20554;-71
2023/12/24 12:40:15;;;;;;;0.50;0.20;;;11.30;99.90;;;;;;5014521;28;20486;-72
2023/12/24 12:42:45;;;;;;;0.60;0.40;;;11.30;99.90;;;;;;5007175;28;20509;-72
2023/12/24 12:45:14;;;;;;;0.60;0.20;;;;;;;;;;4993081;28;20444;-76
2023/12/24 12:47:44;;;;;;;1.13;0.40;;;;;;;;;;5010752;28;20454;-75
2023/12/24 12:50:12;;;;;;;0.50;0.20;;;11.30;99.90;;;;;;5013822;28;20537;-75
2023/12/24 12:52:40;;;;;;;0.50;0.10;;;11.30;99.90;;;;;;5016406;28;20474;-75
2023/12/24 12:55:11;;;;;;;0.60;0.40;;;11.40;99.90;;;;;;5008570;28;20519;-77
2023/12/24 12:57:41;;;;;;;0.50;0.10;;;11.40;99.90;;;;;;5008017;28;20447;-76
2023/12/24 13:00:13;;;;;;;0.60;0.20;;;11.40;99.90;;;;;;5014100;28;21194;-75
2023/12/24 13:02:43;;;;;;;0.50;0.10;;;11.40;99.90;;;;;;5000013;28;20450;-75
2023/12/24 13:05:25;;;;;;;0.60;0.20;;;11.40;99.90;;;;;;4997362;28;20794;-76
2023/12/24 13:07:53;;;;;;;0.50;0.10;;;11.40;99.90;;;;;;4992716;28;20529;-75
2023/12/24 13:10:32;;;;;;;0.50;0.10;;;11.40;99.90;;;;;;5005015;28;20574;-76